sensor_id;sensor_type;location;lat;lon;timestamp;P1;durP1;ratioP1;P2;durP2;ratioP2
63193;SDS011;49289;51.670;5.624;2023-07-29T00:00:46;9.10;;;6.30;;
63193;SDS011;49289;51.670;5.624;2023-07-29T00:02:33;8.40;;;6.60;;
63193;SDS011;49289;51.670;5.624;2023-07-29T00:04:20;7.30;;;5.90;;
63193;SDS011;49289;51.670;5.624;2023-07-29T00:06:09;6.70;;;6.10;;
63193;SDS011;49289;51.670;5.624;2023-07-29T00:07:56;7.00;;;5.90;;
63193;SDS011;49289;51.670;5.624;2023-07-29T00:09:44;7.00;;;6.30;;
63193;SDS011;49289;51.670;5.624;2023-07-29T00:11:32;7.10;;;6.10;;
63193;SDS011;49289;51.670;5.624;2023-07-29T00:13:19;7.40;;;6.60;;
63193;SDS011;49289;51.670;5.624;2023-07-29T00:15:07;8.50;;;6.30;;
63193;SDS011;49289;51.670;5.624;2023-07-29T00:16:54;7.00;;;6.20;;
63193;SDS011;49289;51.670;5.624;2023-07-29T00:18:41;6.70;;;6.00;;
63193;SDS011;49289;51.670;5.624;2023-07-29T00:20:28;7.20;;;6.40;;
63193;SDS011;49289;51.670;5.624;2023-07-29T00:22:15;8.70;;;5.90;;
63193;SDS011;49289;51.670;5.624;2023-07-29T00:24:02;7.00;;;6.10;;
63193;SDS011;49289;51.670;5.624;2023-07-29T00:25:50;7.00;;;6.00;;
63193;SDS011;49289;51.670;5.624;2023-07-29T00:27:38;8.10;;;5.90;;
63193;SDS011;49289;51.670;5.624;2023-07-29T00:29:27;7.50;;;6.20;;
63193;SDS011;49289;51.670;5.624;2023-07-29T00:31:15;9.20;;;6.20;;
63193;SDS011;49289;51.670;5.624;2023-07-29T00:33:03;6.90;;;6.10;;
63193;SDS011;49289;51.670;5.624;2023-07-29T00:34:50;7.60;;;5.90;;
63193;SDS011;49289;51.670;5.624;2023-07-29T00:36:37;6.80;;;5.70;;
63193;SDS011;49289;51.670;5.624;2023-07-29T00:38:24;6.20;;;5.40;;
63193;SDS011;49289;51.670;5.624;2023-07-29T00:40:14;7.20;;;5.70;;
63193;SDS011;49289;51.670;5.624;2023-07-29T00:42:00;6.30;;;5.30;;
63193;SDS011;49289;51.670;5.624;2023-07-29T00:43:48;7.70;;;5.90;;
63193;SDS011;49289;51.670;5.624;2023-07-29T00:45:36;7.70;;;5.60;;
63193;SDS011;49289;51.670;5.624;2023-07-29T00:47:25;6.60;;;5.90;;
63193;SDS011;49289;51.670;5.624;2023-07-29T00:49:12;9.60;;;5.50;;
63193;SDS011;49289;51.670;5.624;2023-07-29T00:51:01;7.20;;;5.90;;
63193;SDS011;49289;51.670;5.624;2023-07-29T00:52:49;7.60;;;6.10;;
63193;SDS011;49289;51.670;5.624;2023-07-29T00:56:23;7.10;;;5.90;;
63193;SDS011;49289;51.670;5.624;2023-07-29T00:58:10;6.00;;;5.40;;
63193;SDS011;49289;51.670;5.624;2023-07-29T00:59:58;6.70;;;5.40;;
63193;SDS011;49289;51.670;5.624;2023-07-29T01:01:45;6.30;;;5.70;;
63193;SDS011;49289;51.670;5.624;2023-07-29T01:03:32;8.30;;;6.20;;
63193;SDS011;49289;51.670;5.624;2023-07-29T01:05:20;6.60;;;5.70;;
63193;SDS011;49289;51.670;5.624;2023-07-29T01:07:14;6.80;;;6.00;;
63193;SDS011;49289;51.670;5.624;2023-07-29T01:08:59;8.10;;;5.60;;
63193;SDS011;49289;51.670;5.624;2023-07-29T01:10:46;6.60;;;5.40;;
63193;SDS011;49289;51.670;5.624;2023-07-29T01:12:34;7.10;;;5.60;;
63193;SDS011;49289;51.670;5.624;2023-07-29T01:14:24;7.40;;;5.60;;
63193;SDS011;49289;51.670;5.624;2023-07-29T01:16:11;6.20;;;5.60;;
63193;SDS011;49289;51.670;5.624;2023-07-29T01:18:01;6.00;;;5.40;;
63193;SDS011;49289;51.670;5.624;2023-07-29T01:19:54;7.40;;;6.00;;
63193;SDS011;49289;51.670;5.624;2023-07-29T01:21:41;6.80;;;5.60;;
63193;SDS011;49289;51.670;5.624;2023-07-29T01:23:29;6.80;;;6.10;;
63193;SDS011;49289;51.670;5.624;2023-07-29T01:25:16;8.10;;;5.70;;
63193;SDS011;49289;51.670;5.624;2023-07-29T01:27:03;7.40;;;5.70;;
63193;SDS011;49289;51.670;5.624;2023-07-29T01:28:52;6.20;;;5.60;;
63193;SDS011;49289;51.670;5.624;2023-07-29T01:30:41;7.40;;;5.80;;
63193;SDS011;49289;51.670;5.624;2023-07-29T01:32:31;6.70;;;6.00;;
63193;SDS011;49289;51.670;5.624;2023-07-29T01:34:21;7.90;;;5.80;;
63193;SDS011;49289;51.670;5.624;2023-07-29T01:36:07;6.80;;;5.60;;
63193;SDS011;49289;51.670;5.624;2023-07-29T01:37:55;8.10;;;5.90;;
63193;SDS011;49289;51.670;5.624;2023-07-29T01:39:40;6.70;;;5.70;;
63193;SDS011;49289;51.670;5.624;2023-07-29T01:41:27;6.50;;;5.60;;
63193;SDS011;49289;51.670;5.624;2023-07-29T01:43:14;7.80;;;5.90;;
63193;SDS011;49289;51.670;5.624;2023-07-29T01:45:01;9.10;;;5.90;;
63193;SDS011;49289;51.670;5.624;2023-07-29T01:46:49;7.00;;;5.90;;
63193;SDS011;49289;51.670;5.624;2023-07-29T01:48:37;9.00;;;6.30;;
63193;SDS011;49289;51.670;5.624;2023-07-29T01:50:25;9.20;;;5.90;;
63193;SDS011;49289;51.670;5.624;2023-07-29T01:52:13;8.50;;;5.90;;
63193;SDS011;49289;51.670;5.624;2023-07-29T01:54:01;6.90;;;5.80;;
63193;SDS011;49289;51.670;5.624;2023-07-29T01:55:50;6.60;;;6.00;;
63193;SDS011;49289;51.670;5.624;2023-07-29T01:57:38;8.00;;;6.30;;
63193;SDS011;49289;51.670;5.624;2023-07-29T01:59:11;6.80;;;5.90;;
63193;SDS011;49289;51.670;5.624;2023-07-29T02:00:58;7.90;;;6.70;;
63193;SDS011;49289;51.670;5.624;2023-07-29T02:02:45;9.60;;;7.00;;
63193;SDS011;49289;51.670;5.624;2023-07-29T02:04:32;8.40;;;7.00;;
63193;SDS011;49289;51.670;5.624;2023-07-29T02:06:19;11.00;;;6.70;;
63193;SDS011;49289;51.670;5.624;2023-07-29T02:08:06;9.10;;;7.00;;
63193;SDS011;49289;51.670;5.624;2023-07-29T02:09:53;11.70;;;7.60;;
63193;SDS011;49289;51.670;5.624;2023-07-29T02:11:41;8.80;;;6.90;;
63193;SDS011;49289;51.670;5.624;2023-07-29T02:13:29;9.90;;;7.10;;
63193;SDS011;49289;51.670;5.624;2023-07-29T02:15:17;8.30;;;6.10;;
63193;SDS011;49289;51.670;5.624;2023-07-29T02:17:06;7.40;;;6.10;;
63193;SDS011;49289;51.670;5.624;2023-07-29T02:18:54;8.70;;;5.40;;
63193;SDS011;49289;51.670;5.624;2023-07-29T02:20:42;7.00;;;5.30;;
63193;SDS011;49289;51.670;5.624;2023-07-29T02:22:30;6.80;;;4.70;;
63193;SDS011;49289;51.670;5.624;2023-07-29T02:24:17;7.10;;;4.80;;
63193;SDS011;49289;51.670;5.624;2023-07-29T02:26:04;5.10;;;4.60;;
63193;SDS011;49289;51.670;5.624;2023-07-29T02:27:51;6.00;;;4.30;;
63193;SDS011;49289;51.670;5.624;2023-07-29T02:29:38;5.00;;;4.10;;
63193;SDS011;49289;51.670;5.624;2023-07-29T02:31:25;4.80;;;4.00;;
63193;SDS011;49289;51.670;5.624;2023-07-29T02:33:12;6.00;;;4.00;;
63193;SDS011;49289;51.670;5.624;2023-07-29T02:35:00;5.60;;;3.50;;
63193;SDS011;49289;51.670;5.624;2023-07-29T02:36:49;4.60;;;3.80;;
63193;SDS011;49289;51.670;5.624;2023-07-29T02:38:37;4.00;;;3.60;;
63193;SDS011;49289;51.670;5.624;2023-07-29T02:40:24;4.20;;;3.80;;
63193;SDS011;49289;51.670;5.624;2023-07-29T02:42:11;4.40;;;3.40;;
63193;SDS011;49289;51.670;5.624;2023-07-29T02:43:58;5.50;;;3.30;;
63193;SDS011;49289;51.670;5.624;2023-07-29T02:45:45;3.60;;;3.30;;
63193;SDS011;49289;51.670;5.624;2023-07-29T02:47:32;4.30;;;3.10;;
63193;SDS011;49289;51.670;5.624;2023-07-29T02:49:20;3.30;;;3.00;;
63193;SDS011;49289;51.670;5.624;2023-07-29T02:51:09;4.40;;;3.10;;
63193;SDS011;49289;51.670;5.624;2023-07-29T02:52:57;6.00;;;3.00;;
63193;SDS011;49289;51.670;5.624;2023-07-29T02:54:45;4.30;;;3.00;;
63193;SDS011;49289;51.670;5.624;2023-07-29T02:56:32;4.20;;;3.40;;
63193;SDS011;49289;51.670;5.624;2023-07-29T02:58:19;5.80;;;3.40;;
63193;SDS011;49289;51.670;5.624;2023-07-29T03:00:06;4.90;;;3.10;;
63193;SDS011;49289;51.670;5.624;2023-07-29T03:01:54;4.50;;;3.00;;
63193;SDS011;49289;51.670;5.624;2023-07-29T03:03:42;4.30;;;3.50;;
63193;SDS011;49289;51.670;5.624;2023-07-29T03:05:32;4.70;;;3.30;;
63193;SDS011;49289;51.670;5.624;2023-07-29T03:07:20;3.80;;;3.30;;
63193;SDS011;49289;51.670;5.624;2023-07-29T03:09:08;5.40;;;3.10;;
63193;SDS011;49289;51.670;5.624;2023-07-29T03:10:57;6.20;;;3.20;;
63193;SDS011;49289;51.670;5.624;2023-07-29T03:12:45;4.10;;;3.30;;
63193;SDS011;49289;51.670;5.624;2023-07-29T03:14:33;3.60;;;3.00;;
63193;SDS011;49289;51.670;5.624;2023-07-29T03:16:21;4.10;;;3.40;;
63193;SDS011;49289;51.670;5.624;2023-07-29T03:18:09;5.20;;;3.10;;
63193;SDS011;49289;51.670;5.624;2023-07-29T03:19:56;3.80;;;3.40;;
63193;SDS011;49289;51.670;5.624;2023-07-29T03:21:43;3.90;;;3.50;;
63193;SDS011;49289;51.670;5.624;2023-07-29T03:23:30;4.20;;;3.50;;
63193;SDS011;49289;51.670;5.624;2023-07-29T03:25:17;5.70;;;3.30;;
63193;SDS011;49289;51.670;5.624;2023-07-29T03:27:04;4.80;;;3.50;;
63193;SDS011;49289;51.670;5.624;2023-07-29T03:28:52;4.70;;;3.90;;
63193;SDS011;49289;51.670;5.624;2023-07-29T03:30:41;6.20;;;3.70;;
63193;SDS011;49289;51.670;5.624;2023-07-29T03:32:29;4.50;;;3.70;;
63193;SDS011;49289;51.670;5.624;2023-07-29T03:34:16;5.20;;;4.10;;
63193;SDS011;49289;51.670;5.624;2023-07-29T03:36:03;5.50;;;3.90;;
63193;SDS011;49289;51.670;5.624;2023-07-29T03:37:50;5.10;;;3.70;;
63193;SDS011;49289;51.670;5.624;2023-07-29T03:39:37;7.00;;;4.10;;
63193;SDS011;49289;51.670;5.624;2023-07-29T03:41:24;6.80;;;3.80;;
63193;SDS011;49289;51.670;5.624;2023-07-29T03:43:11;4.20;;;3.80;;
63193;SDS011;49289;51.670;5.624;2023-07-29T03:44:58;5.60;;;3.90;;
63193;SDS011;49289;51.670;5.624;2023-07-29T03:46:47;5.30;;;4.00;;
63193;SDS011;49289;51.670;5.624;2023-07-29T03:48:35;5.90;;;4.30;;
63193;SDS011;49289;51.670;5.624;2023-07-29T03:50:22;4.90;;;4.00;;
63193;SDS011;49289;51.670;5.624;2023-07-29T03:52:10;5.30;;;4.00;;
63193;SDS011;49289;51.670;5.624;2023-07-29T03:53:58;5.30;;;3.90;;
63193;SDS011;49289;51.670;5.624;2023-07-29T03:55:46;4.70;;;3.80;;
63193;SDS011;49289;51.670;5.624;2023-07-29T03:57:33;5.10;;;4.20;;
63193;SDS011;49289;51.670;5.624;2023-07-29T03:59:20;4.10;;;3.70;;
63193;SDS011;49289;51.670;5.624;2023-07-29T04:01:07;5.80;;;4.00;;
63193;SDS011;49289;51.670;5.624;2023-07-29T04:02:54;5.80;;;4.30;;
63193;SDS011;49289;51.670;5.624;2023-07-29T04:04:41;5.10;;;3.40;;
63193;SDS011;49289;51.670;5.624;2023-07-29T04:06:30;4.60;;;4.00;;
63193;SDS011;49289;51.670;5.624;2023-07-29T04:08:18;4.00;;;3.60;;
63193;SDS011;49289;51.670;5.624;2023-07-29T04:10:05;4.00;;;3.60;;
63193;SDS011;49289;51.670;5.624;2023-07-29T04:11:54;3.90;;;3.40;;
63193;SDS011;49289;51.670;5.624;2023-07-29T04:13:41;5.90;;;3.70;;
63193;SDS011;49289;51.670;5.624;2023-07-29T04:15:28;5.00;;;4.00;;
63193;SDS011;49289;51.670;5.624;2023-07-29T04:17:15;4.90;;;3.60;;
63193;SDS011;49289;51.670;5.624;2023-07-29T04:19:02;4.80;;;3.70;;
63193;SDS011;49289;51.670;5.624;2023-07-29T04:20:49;4.70;;;3.70;;
63193;SDS011;49289;51.670;5.624;2023-07-29T04:22:36;4.80;;;3.80;;
63193;SDS011;49289;51.670;5.624;2023-07-29T04:24:23;4.10;;;3.40;;
63193;SDS011;49289;51.670;5.624;2023-07-29T04:26:11;5.20;;;3.60;;
63193;SDS011;49289;51.670;5.624;2023-07-29T04:28:00;4.40;;;3.60;;
63193;SDS011;49289;51.670;5.624;2023-07-29T04:29:48;4.00;;;3.10;;
63193;SDS011;49289;51.670;5.624;2023-07-29T04:31:35;4.50;;;3.60;;
63193;SDS011;49289;51.670;5.624;2023-07-29T04:33:22;5.30;;;3.60;;
63193;SDS011;49289;51.670;5.624;2023-07-29T04:35:10;4.30;;;3.50;;
63193;SDS011;49289;51.670;5.624;2023-07-29T04:36:57;6.50;;;3.30;;
63193;SDS011;49289;51.670;5.624;2023-07-29T04:38:44;4.20;;;3.60;;
63193;SDS011;49289;51.670;5.624;2023-07-29T04:40:32;7.10;;;3.70;;
63193;SDS011;49289;51.670;5.624;2023-07-29T04:42:18;5.30;;;3.40;;
63193;SDS011;49289;51.670;5.624;2023-07-29T04:44:05;4.60;;;3.50;;
63193;SDS011;49289;51.670;5.624;2023-07-29T04:45:52;4.50;;;3.50;;
63193;SDS011;49289;51.670;5.624;2023-07-29T04:47:39;4.80;;;3.60;;
63193;SDS011;49289;51.670;5.624;2023-07-29T04:49:27;6.50;;;3.80;;
63193;SDS011;49289;51.670;5.624;2023-07-29T04:51:15;4.00;;;3.40;;
63193;SDS011;49289;51.670;5.624;2023-07-29T04:53:03;4.60;;;3.60;;
63193;SDS011;49289;51.670;5.624;2023-07-29T04:54:52;5.70;;;3.90;;
63193;SDS011;49289;51.670;5.624;2023-07-29T04:56:40;7.60;;;3.80;;
63193;SDS011;49289;51.670;5.624;2023-07-29T04:58:28;5.00;;;3.60;;
63193;SDS011;49289;51.670;5.624;2023-07-29T05:00:16;5.10;;;3.80;;
63193;SDS011;49289;51.670;5.624;2023-07-29T05:02:03;6.00;;;3.70;;
63193;SDS011;49289;51.670;5.624;2023-07-29T05:03:50;4.90;;;4.00;;
63193;SDS011;49289;51.670;5.624;2023-07-29T05:05:37;4.90;;;3.80;;
63193;SDS011;49289;51.670;5.624;2023-07-29T05:07:24;4.90;;;3.60;;
63193;SDS011;49289;51.670;5.624;2023-07-29T05:09:19;3.60;;;3.30;;
63193;SDS011;49289;51.670;5.624;2023-07-29T05:11:06;4.80;;;3.90;;
63193;SDS011;49289;51.670;5.624;2023-07-29T05:12:55;4.70;;;3.50;;
63193;SDS011;49289;51.670;5.624;2023-07-29T05:14:43;4.70;;;3.70;;
63193;SDS011;49289;51.670;5.624;2023-07-29T05:16:31;5.50;;;3.70;;
63193;SDS011;49289;51.670;5.624;2023-07-29T05:18:18;6.10;;;4.00;;
63193;SDS011;49289;51.670;5.624;2023-07-29T05:20:05;4.80;;;3.40;;
63193;SDS011;49289;51.670;5.624;2023-07-29T05:21:53;6.70;;;3.90;;
63193;SDS011;49289;51.670;5.624;2023-07-29T05:23:40;5.50;;;3.80;;
63193;SDS011;49289;51.670;5.624;2023-07-29T05:25:28;12.20;;;3.80;;
63193;SDS011;49289;51.670;5.624;2023-07-29T05:27:17;6.40;;;3.70;;
63193;SDS011;49289;51.670;5.624;2023-07-29T05:29:04;4.50;;;3.60;;
63193;SDS011;49289;51.670;5.624;2023-07-29T05:30:52;5.20;;;3.70;;
63193;SDS011;49289;51.670;5.624;2023-07-29T05:32:40;4.50;;;3.70;;
63193;SDS011;49289;51.670;5.624;2023-07-29T05:34:29;6.00;;;3.70;;
63193;SDS011;49289;51.670;5.624;2023-07-29T05:36:17;4.80;;;3.80;;
63193;SDS011;49289;51.670;5.624;2023-07-29T05:38:05;6.30;;;3.90;;
63193;SDS011;49289;51.670;5.624;2023-07-29T05:39:52;5.50;;;3.90;;
63193;SDS011;49289;51.670;5.624;2023-07-29T05:41:39;4.40;;;3.60;;
63193;SDS011;49289;51.670;5.624;2023-07-29T05:43:26;3.70;;;3.30;;
63193;SDS011;49289;51.670;5.624;2023-07-29T05:45:15;7.30;;;3.80;;
63193;SDS011;49289;51.670;5.624;2023-07-29T05:47:02;3.90;;;3.50;;
63193;SDS011;49289;51.670;5.624;2023-07-29T05:48:50;5.10;;;3.50;;
63193;SDS011;49289;51.670;5.624;2023-07-29T05:50:38;6.20;;;3.50;;
63193;SDS011;49289;51.670;5.624;2023-07-29T05:52:27;5.80;;;3.70;;
63193;SDS011;49289;51.670;5.624;2023-07-29T05:54:15;5.40;;;3.40;;
63193;SDS011;49289;51.670;5.624;2023-07-29T05:56:02;3.90;;;3.20;;
63193;SDS011;49289;51.670;5.624;2023-07-29T05:57:49;4.90;;;3.30;;
63193;SDS011;49289;51.670;5.624;2023-07-29T05:59:36;4.60;;;3.30;;
63193;SDS011;49289;51.670;5.624;2023-07-29T06:01:25;4.00;;;3.10;;
63193;SDS011;49289;51.670;5.624;2023-07-29T06:03:12;4.20;;;3.30;;
63193;SDS011;49289;51.670;5.624;2023-07-29T06:05:00;5.20;;;3.30;;
63193;SDS011;49289;51.670;5.624;2023-07-29T06:06:48;5.70;;;3.30;;
63193;SDS011;49289;51.670;5.624;2023-07-29T06:08:35;4.30;;;3.20;;
63193;SDS011;49289;51.670;5.624;2023-07-29T06:10:22;5.20;;;3.20;;
63193;SDS011;49289;51.670;5.624;2023-07-29T06:12:10;4.00;;;3.00;;
63193;SDS011;49289;51.670;5.624;2023-07-29T06:13:58;7.80;;;3.30;;
63193;SDS011;49289;51.670;5.624;2023-07-29T06:15:46;3.60;;;3.00;;
63193;SDS011;49289;51.670;5.624;2023-07-29T06:17:33;3.70;;;2.80;;
63193;SDS011;49289;51.670;5.624;2023-07-29T06:19:20;3.40;;;3.00;;
63193;SDS011;49289;51.670;5.624;2023-07-29T06:21:07;3.00;;;2.50;;
63193;SDS011;49289;51.670;5.624;2023-07-29T06:22:54;3.20;;;2.90;;
63193;SDS011;49289;51.670;5.624;2023-07-29T06:24:41;5.70;;;2.90;;
63193;SDS011;49289;51.670;5.624;2023-07-29T06:26:29;4.80;;;3.60;;
63193;SDS011;49289;51.670;5.624;2023-07-29T06:28:17;3.00;;;2.70;;
63193;SDS011;49289;51.670;5.624;2023-07-29T06:30:05;3.00;;;2.70;;
63193;SDS011;49289;51.670;5.624;2023-07-29T06:31:53;4.00;;;2.70;;
63193;SDS011;49289;51.670;5.624;2023-07-29T06:33:40;4.60;;;3.20;;
63193;SDS011;49289;51.670;5.624;2023-07-29T06:35:27;4.30;;;3.00;;
63193;SDS011;49289;51.670;5.624;2023-07-29T06:37:15;3.30;;;3.00;;
63193;SDS011;49289;51.670;5.624;2023-07-29T06:39:03;3.90;;;3.00;;
63193;SDS011;49289;51.670;5.624;2023-07-29T06:40:52;4.10;;;3.20;;
63193;SDS011;49289;51.670;5.624;2023-07-29T06:42:40;4.80;;;3.50;;
63193;SDS011;49289;51.670;5.624;2023-07-29T06:44:29;4.70;;;3.20;;
63193;SDS011;49289;51.670;5.624;2023-07-29T06:46:16;4.20;;;3.70;;
63193;SDS011;49289;51.670;5.624;2023-07-29T06:48:03;4.30;;;3.90;;
63193;SDS011;49289;51.670;5.624;2023-07-29T06:49:51;6.30;;;4.30;;
63193;SDS011;49289;51.670;5.624;2023-07-29T06:51:39;5.20;;;4.20;;
63193;SDS011;49289;51.670;5.624;2023-07-29T06:53:26;6.10;;;4.60;;
63193;SDS011;49289;51.670;5.624;2023-07-29T06:55:13;9.00;;;4.60;;
63193;SDS011;49289;51.670;5.624;2023-07-29T06:57:01;6.80;;;4.60;;
63193;SDS011;49289;51.670;5.624;2023-07-29T06:58:49;6.30;;;4.70;;
63193;SDS011;49289;51.670;5.624;2023-07-29T07:00:36;7.00;;;4.90;;
63193;SDS011;49289;51.670;5.624;2023-07-29T07:02:23;6.10;;;4.80;;
63193;SDS011;49289;51.670;5.624;2023-07-29T07:04:10;7.20;;;4.90;;
63193;SDS011;49289;51.670;5.624;2023-07-29T07:05:58;5.50;;;4.70;;
63193;SDS011;49289;51.670;5.624;2023-07-29T07:07:45;6.70;;;4.80;;
63193;SDS011;49289;51.670;5.624;2023-07-29T07:09:33;6.80;;;4.50;;
63193;SDS011;49289;51.670;5.624;2023-07-29T07:11:22;6.70;;;4.50;;
63193;SDS011;49289;51.670;5.624;2023-07-29T07:13:10;5.10;;;4.00;;
63193;SDS011;49289;51.670;5.624;2023-07-29T07:14:59;5.30;;;4.00;;
63193;SDS011;49289;51.670;5.624;2023-07-29T07:16:45;4.10;;;3.50;;
63193;SDS011;49289;51.670;5.624;2023-07-29T07:18:33;4.80;;;3.60;;
63193;SDS011;49289;51.670;5.624;2023-07-29T07:20:22;3.40;;;3.00;;
63193;SDS011;49289;51.670;5.624;2023-07-29T07:22:09;4.40;;;3.40;;
63193;SDS011;49289;51.670;5.624;2023-07-29T07:23:56;4.90;;;3.30;;
63193;SDS011;49289;51.670;5.624;2023-07-29T07:25:43;3.50;;;2.90;;
63193;SDS011;49289;51.670;5.624;2023-07-29T07:27:30;3.70;;;2.70;;
63193;SDS011;49289;51.670;5.624;2023-07-29T07:29:18;4.00;;;3.00;;
63193;SDS011;49289;51.670;5.624;2023-07-29T07:31:07;3.30;;;2.60;;
63193;SDS011;49289;51.670;5.624;2023-07-29T07:32:55;2.90;;;2.50;;
63193;SDS011;49289;51.670;5.624;2023-07-29T07:34:43;3.30;;;2.40;;
63193;SDS011;49289;51.670;5.624;2023-07-29T07:36:31;3.30;;;2.50;;
63193;SDS011;49289;51.670;5.624;2023-07-29T07:38:19;2.70;;;2.50;;
63193;SDS011;49289;51.670;5.624;2023-07-29T07:40:06;4.20;;;2.50;;
63193;SDS011;49289;51.670;5.624;2023-07-29T07:41:55;4.50;;;2.30;;
63193;SDS011;49289;51.670;5.624;2023-07-29T07:43:43;2.70;;;2.50;;
63193;SDS011;49289;51.670;5.624;2023-07-29T07:45:31;3.60;;;2.20;;
63193;SDS011;49289;51.670;5.624;2023-07-29T07:47:17;2.80;;;2.50;;
63193;SDS011;49289;51.670;5.624;2023-07-29T07:49:04;5.30;;;2.60;;
63193;SDS011;49289;51.670;5.624;2023-07-29T07:50:52;3.70;;;2.60;;
63193;SDS011;49289;51.670;5.624;2023-07-29T07:52:40;2.80;;;2.50;;
63193;SDS011;49289;51.670;5.624;2023-07-29T07:54:29;2.80;;;2.60;;
63193;SDS011;49289;51.670;5.624;2023-07-29T07:56:17;3.50;;;2.60;;
63193;SDS011;49289;51.670;5.624;2023-07-29T07:58:04;2.70;;;2.20;;
63193;SDS011;49289;51.670;5.624;2023-07-29T07:59:51;2.90;;;2.60;;
63193;SDS011;49289;51.670;5.624;2023-07-29T08:01:39;2.90;;;2.60;;
63193;SDS011;49289;51.670;5.624;2023-07-29T08:03:28;3.70;;;2.50;;
63193;SDS011;49289;51.670;5.624;2023-07-29T08:05:15;2.80;;;2.50;;
63193;SDS011;49289;51.670;5.624;2023-07-29T08:07:02;3.50;;;2.60;;
63193;SDS011;49289;51.670;5.624;2023-07-29T08:08:50;4.70;;;2.80;;
63193;SDS011;49289;51.670;5.624;2023-07-29T08:10:37;2.50;;;2.30;;
63193;SDS011;49289;51.670;5.624;2023-07-29T08:12:24;3.40;;;2.60;;
63193;SDS011;49289;51.670;5.624;2023-07-29T08:14:12;2.80;;;2.50;;
63193;SDS011;49289;51.670;5.624;2023-07-29T08:16:00;4.60;;;2.90;;
63193;SDS011;49289;51.670;5.624;2023-07-29T08:17:49;3.40;;;2.90;;
63193;SDS011;49289;51.670;5.624;2023-07-29T08:19:37;2.80;;;2.60;;
63193;SDS011;49289;51.670;5.624;2023-07-29T08:21:26;3.10;;;2.60;;
63193;SDS011;49289;51.670;5.624;2023-07-29T08:23:12;3.00;;;2.50;;
63193;SDS011;49289;51.670;5.624;2023-07-29T08:25:00;3.00;;;2.60;;
63193;SDS011;49289;51.670;5.624;2023-07-29T08:26:47;3.60;;;2.90;;
63193;SDS011;49289;51.670;5.624;2023-07-29T08:28:35;4.00;;;2.80;;
63193;SDS011;49289;51.670;5.624;2023-07-29T08:30:21;3.10;;;2.80;;
63193;SDS011;49289;51.670;5.624;2023-07-29T08:32:08;4.50;;;3.40;;
63193;SDS011;49289;51.670;5.624;2023-07-29T08:33:57;3.70;;;3.00;;
63193;SDS011;49289;51.670;5.624;2023-07-29T08:35:45;3.50;;;3.20;;
63193;SDS011;49289;51.670;5.624;2023-07-29T08:37:33;3.00;;;2.70;;
63193;SDS011;49289;51.670;5.624;2023-07-29T08:39:20;3.10;;;2.80;;
63193;SDS011;49289;51.670;5.624;2023-07-29T08:41:10;3.10;;;2.80;;
63193;SDS011;49289;51.670;5.624;2023-07-29T08:42:57;3.10;;;2.90;;
63193;SDS011;49289;51.670;5.624;2023-07-29T08:44:45;3.30;;;3.00;;
63193;SDS011;49289;51.670;5.624;2023-07-29T08:46:33;3.50;;;2.90;;
63193;SDS011;49289;51.670;5.624;2023-07-29T08:48:22;4.60;;;2.60;;
63193;SDS011;49289;51.670;5.624;2023-07-29T08:50:08;3.40;;;2.60;;
63193;SDS011;49289;51.670;5.624;2023-07-29T08:51:57;3.60;;;2.70;;
63193;SDS011;49289;51.670;5.624;2023-07-29T08:53:45;3.20;;;2.90;;
63193;SDS011;49289;51.670;5.624;2023-07-29T08:55:32;3.60;;;2.80;;
63193;SDS011;49289;51.670;5.624;2023-07-29T08:57:19;4.30;;;2.50;;
63193;SDS011;49289;51.670;5.624;2023-07-29T08:59:06;2.60;;;2.40;;
63193;SDS011;49289;51.670;5.624;2023-07-29T09:00:53;3.20;;;2.30;;
63193;SDS011;49289;51.670;5.624;2023-07-29T09:02:41;2.70;;;2.10;;
63193;SDS011;49289;51.670;5.624;2023-07-29T09:04:30;2.20;;;2.00;;
63193;SDS011;49289;51.670;5.624;2023-07-29T09:06:18;2.10;;;1.80;;
63193;SDS011;49289;51.670;5.624;2023-07-29T09:08:06;2.20;;;2.00;;
63193;SDS011;49289;51.670;5.624;2023-07-29T09:09:54;3.20;;;2.10;;
63193;SDS011;49289;51.670;5.624;2023-07-29T09:11:41;3.80;;;2.00;;
63193;SDS011;49289;51.670;5.624;2023-07-29T09:13:28;2.00;;;1.70;;
63193;SDS011;49289;51.670;5.624;2023-07-29T09:15:15;2.10;;;1.80;;
63193;SDS011;49289;51.670;5.624;2023-07-29T09:17:13;2.70;;;1.90;;
63193;SDS011;49289;51.670;5.624;2023-07-29T09:19:00;1.80;;;1.70;;
63193;SDS011;49289;51.670;5.624;2023-07-29T09:20:47;2.60;;;1.80;;
63193;SDS011;49289;51.670;5.624;2023-07-29T09:22:34;2.80;;;1.80;;
63193;SDS011;49289;51.670;5.624;2023-07-29T09:24:21;2.00;;;1.70;;
63193;SDS011;49289;51.670;5.624;2023-07-29T09:26:08;1.80;;;1.70;;
63193;SDS011;49289;51.670;5.624;2023-07-29T09:27:56;2.00;;;1.50;;
63193;SDS011;49289;51.670;5.624;2023-07-29T09:29:45;1.80;;;1.60;;
63193;SDS011;49289;51.670;5.624;2023-07-29T09:31:32;2.70;;;1.50;;
63193;SDS011;49289;51.670;5.624;2023-07-29T09:33:19;1.70;;;1.60;;
63193;SDS011;49289;51.670;5.624;2023-07-29T09:35:08;2.00;;;1.60;;
63193;SDS011;49289;51.670;5.624;2023-07-29T09:36:56;2.40;;;1.60;;
63193;SDS011;49289;51.670;5.624;2023-07-29T09:38:44;1.70;;;1.60;;
63193;SDS011;49289;51.670;5.624;2023-07-29T09:40:33;3.00;;;1.50;;
63193;SDS011;49289;51.670;5.624;2023-07-29T09:42:23;2.60;;;1.40;;
63193;SDS011;49289;51.670;5.624;2023-07-29T09:44:11;1.40;;;1.30;;
63193;SDS011;49289;51.670;5.624;2023-07-29T09:45:58;2.30;;;1.30;;
63193;SDS011;49289;51.670;5.624;2023-07-29T09:47:45;1.60;;;1.20;;
63193;SDS011;49289;51.670;5.624;2023-07-29T09:49:32;1.40;;;1.30;;
63193;SDS011;49289;51.670;5.624;2023-07-29T09:51:20;2.50;;;1.30;;
63193;SDS011;49289;51.670;5.624;2023-07-29T09:53:07;1.60;;;1.30;;
63193;SDS011;49289;51.670;5.624;2023-07-29T09:54:54;1.40;;;1.30;;
63193;SDS011;49289;51.670;5.624;2023-07-29T09:56:41;1.50;;;1.30;;
63193;SDS011;49289;51.670;5.624;2023-07-29T09:58:31;1.50;;;1.40;;
63193;SDS011;49289;51.670;5.624;2023-07-29T10:00:18;1.40;;;1.20;;
63193;SDS011;49289;51.670;5.624;2023-07-29T10:02:07;2.20;;;1.10;;
63193;SDS011;49289;51.670;5.624;2023-07-29T10:03:54;1.50;;;1.30;;
63193;SDS011;49289;51.670;5.624;2023-07-29T10:05:41;1.50;;;1.40;;
63193;SDS011;49289;51.670;5.624;2023-07-29T10:07:29;1.30;;;1.20;;
63193;SDS011;49289;51.670;5.624;2023-07-29T10:09:17;1.80;;;1.50;;
63193;SDS011;49289;51.670;5.624;2023-07-29T10:11:06;2.30;;;1.30;;
63193;SDS011;49289;51.670;5.624;2023-07-29T10:12:53;2.40;;;1.30;;
63193;SDS011;49289;51.670;5.624;2023-07-29T10:14:40;1.30;;;1.20;;
63193;SDS011;49289;51.670;5.624;2023-07-29T10:16:27;1.80;;;1.50;;
63193;SDS011;49289;51.670;5.624;2023-07-29T10:18:14;1.50;;;1.30;;
63193;SDS011;49289;51.670;5.624;2023-07-29T10:20:02;1.70;;;1.30;;
63193;SDS011;49289;51.670;5.624;2023-07-29T10:21:50;1.30;;;1.20;;
63193;SDS011;49289;51.670;5.624;2023-07-29T10:23:40;1.50;;;1.20;;
63193;SDS011;49289;51.670;5.624;2023-07-29T10:25:36;2.20;;;1.30;;
63193;SDS011;49289;51.670;5.624;2023-07-29T10:27:16;1.40;;;1.30;;
63193;SDS011;49289;51.670;5.624;2023-07-29T10:29:04;1.40;;;1.30;;
63193;SDS011;49289;51.670;5.624;2023-07-29T10:30:52;1.40;;;1.30;;
63193;SDS011;49289;51.670;5.624;2023-07-29T10:32:40;2.70;;;1.60;;
63193;SDS011;49289;51.670;5.624;2023-07-29T10:34:27;1.60;;;1.50;;
63193;SDS011;49289;51.670;5.624;2023-07-29T10:36:15;1.40;;;1.30;;
63193;SDS011;49289;51.670;5.624;2023-07-29T10:38:04;3.10;;;1.40;;
63193;SDS011;49289;51.670;5.624;2023-07-29T10:39:57;1.50;;;1.40;;
63193;SDS011;49289;51.670;5.624;2023-07-29T10:42:00;1.40;;;1.30;;
63193;SDS011;49289;51.670;5.624;2023-07-29T10:43:47;1.80;;;1.50;;
63193;SDS011;49289;51.670;5.624;2023-07-29T10:45:41;1.60;;;1.50;;
63193;SDS011;49289;51.670;5.624;2023-07-29T10:47:29;2.20;;;1.50;;
63193;SDS011;49289;51.670;5.624;2023-07-29T10:49:17;1.70;;;1.50;;
63193;SDS011;49289;51.670;5.624;2023-07-29T10:53:10;2.10;;;1.80;;